sensor_id;sensor_type;location;lat;lon;timestamp;P1;durP1;ratioP1;P2;durP2;ratioP2
25435;SDS011;13363;52.772;-3.890;2023-03-30T00:01:28;13.07;;;3.10;;
25435;SDS011;13363;52.772;-3.890;2023-03-30T00:03:54;12.20;;;3.60;;
25435;SDS011;13363;52.772;-3.890;2023-03-30T00:06:20;7.50;;;2.50;;
25435;SDS011;13363;52.772;-3.890;2023-03-30T00:08:50;7.27;;;1.87;;
25435;SDS011;13363;52.772;-3.890;2023-03-30T00:11:22;9.83;;;2.10;;
25435;SDS011;13363;52.772;-3.890;2023-03-30T00:13:49;8.77;;;1.93;;
25435;SDS011;13363;52.772;-3.890;2023-03-30T00:16:16;6.13;;;2.03;;
25435;SDS011;13363;52.772;-3.890;2023-03-30T00:18:43;6.30;;;2.47;;
25435;SDS011;13363;52.772;-3.890;2023-03-30T00:21:11;5.87;;;1.47;;
25435;SDS011;13363;52.772;-3.890;2023-03-30T00:23:38;6.67;;;1.87;;
25435;SDS011;13363;52.772;-3.890;2023-03-30T00:26:04;3.93;;;1.57;;
25435;SDS011;13363;52.772;-3.890;2023-03-30T00:28:31;8.80;;;1.83;;
25435;SDS011;13363;52.772;-3.890;2023-03-30T00:30:58;4.70;;;1.90;;
25435;SDS011;13363;52.772;-3.890;2023-03-30T00:33:24;6.97;;;2.30;;
25435;SDS011;13363;52.772;-3.890;2023-03-30T00:35:54;10.10;;;3.13;;
25435;SDS011;13363;52.772;-3.890;2023-03-30T00:38:21;7.93;;;2.53;;
25435;SDS011;13363;52.772;-3.890;2023-03-30T00:40:51;7.40;;;2.10;;
25435;SDS011;13363;52.772;-3.890;2023-03-30T00:43:18;2.27;;;0.93;;
25435;SDS011;13363;52.772;-3.890;2023-03-30T00:45:44;7.33;;;1.97;;
25435;SDS011;13363;52.772;-3.890;2023-03-30T00:48:11;7.77;;;2.00;;
25435;SDS011;13363;52.772;-3.890;2023-03-30T00:50:43;13.40;;;2.40;;
25435;SDS011;13363;52.772;-3.890;2023-03-30T00:53:27;5.70;;;1.90;;
25435;SDS011;13363;52.772;-3.890;2023-03-30T00:55:57;8.30;;;1.70;;
25435;SDS011;13363;52.772;-3.890;2023-03-30T00:58:24;3.87;;;1.57;;
25435;SDS011;13363;52.772;-3.890;2023-03-30T01:00:51;4.27;;;1.57;;
25435;SDS011;13363;52.772;-3.890;2023-03-30T01:03:19;6.07;;;1.40;;
25435;SDS011;13363;52.772;-3.890;2023-03-30T01:05:51;12.13;;;2.63;;
25435;SDS011;13363;52.772;-3.890;2023-03-30T01:08:18;11.33;;;3.40;;
25435;SDS011;13363;52.772;-3.890;2023-03-30T01:10:48;8.87;;;2.83;;
25435;SDS011;13363;52.772;-3.890;2023-03-30T01:13:16;15.80;;;3.27;;
25435;SDS011;13363;52.772;-3.890;2023-03-30T01:18:34;18.50;;;4.23;;
25435;SDS011;13363;52.772;-3.890;2023-03-30T01:26:41;16.43;;;4.10;;
25435;SDS011;13363;52.772;-3.890;2023-03-30T01:34:42;11.73;;;2.80;;
25435;SDS011;13363;52.772;-3.890;2023-03-30T01:51:14;13.83;;;3.63;;
25435;SDS011;13363;52.772;-3.890;2023-03-30T01:54:16;19.23;;;4.33;;
25435;SDS011;13363;52.772;-3.890;2023-03-30T01:56:47;25.03;;;4.00;;
25435;SDS011;13363;52.772;-3.890;2023-03-30T01:59:26;20.53;;;4.07;;
25435;SDS011;13363;52.772;-3.890;2023-03-30T02:02:20;11.20;;;2.90;;
25435;SDS011;13363;52.772;-3.890;2023-03-30T02:04:49;15.33;;;3.33;;
25435;SDS011;13363;52.772;-3.890;2023-03-30T02:07:19;20.53;;;4.23;;
25435;SDS011;13363;52.772;-3.890;2023-03-30T02:09:48;29.30;;;5.60;;
25435;SDS011;13363;52.772;-3.890;2023-03-30T02:12:17;16.90;;;4.20;;
25435;SDS011;13363;52.772;-3.890;2023-03-30T02:14:45;16.67;;;3.73;;
25435;SDS011;13363;52.772;-3.890;2023-03-30T02:17:14;17.93;;;4.30;;
25435;SDS011;13363;52.772;-3.890;2023-03-30T02:19:44;22.47;;;4.33;;
25435;SDS011;13363;52.772;-3.890;2023-03-30T02:22:11;16.33;;;3.97;;
25435;SDS011;13363;52.772;-3.890;2023-03-30T02:24:39;16.73;;;3.87;;
25435;SDS011;13363;52.772;-3.890;2023-03-30T02:27:06;10.73;;;2.47;;
25435;SDS011;13363;52.772;-3.890;2023-03-30T02:29:31;18.53;;;4.37;;
25435;SDS011;13363;52.772;-3.890;2023-03-30T02:32:01;16.83;;;2.90;;
25435;SDS011;13363;52.772;-3.890;2023-03-30T02:34:44;19.53;;;3.30;;
25435;SDS011;13363;52.772;-3.890;2023-03-30T02:50:30;16.50;;;3.77;;
25435;SDS011;13363;52.772;-3.890;2023-03-30T02:55:32;19.13;;;3.43;;
25435;SDS011;13363;52.772;-3.890;2023-03-30T02:58:06;26.77;;;3.97;;
25435;SDS011;13363;52.772;-3.890;2023-03-30T03:00:51;12.87;;;3.00;;
25435;SDS011;13363;52.772;-3.890;2023-03-30T03:03:23;22.13;;;3.30;;
25435;SDS011;13363;52.772;-3.890;2023-03-30T03:05:55;29.10;;;5.40;;
25435;SDS011;13363;52.772;-3.890;2023-03-30T03:08:27;17.47;;;4.30;;
25435;SDS011;13363;52.772;-3.890;2023-03-30T03:10:56;20.03;;;3.60;;
25435;SDS011;13363;52.772;-3.890;2023-03-30T03:13:22;21.03;;;3.40;;
25435;SDS011;13363;52.772;-3.890;2023-03-30T03:15:48;16.07;;;2.60;;
25435;SDS011;13363;52.772;-3.890;2023-03-30T03:18:14;26.63;;;4.57;;
25435;SDS011;13363;52.772;-3.890;2023-03-30T03:20:40;14.87;;;3.87;;
25435;SDS011;13363;52.772;-3.890;2023-03-30T03:23:06;20.77;;;4.27;;
25435;SDS011;13363;52.772;-3.890;2023-03-30T03:25:31;13.70;;;3.90;;
25435;SDS011;13363;52.772;-3.890;2023-03-30T03:27:57;12.90;;;2.90;;
25435;SDS011;13363;52.772;-3.890;2023-03-30T03:30:23;19.57;;;3.73;;
25435;SDS011;13363;52.772;-3.890;2023-03-30T03:32:49;17.67;;;4.07;;
25435;SDS011;13363;52.772;-3.890;2023-03-30T03:35:15;27.53;;;4.97;;
25435;SDS011;13363;52.772;-3.890;2023-03-30T03:37:41;20.37;;;3.57;;
25435;SDS011;13363;52.772;-3.890;2023-03-30T03:40:07;13.33;;;2.90;;
25435;SDS011;13363;52.772;-3.890;2023-03-30T03:42:35;17.37;;;3.10;;
25435;SDS011;13363;52.772;-3.890;2023-03-30T03:45:01;9.40;;;2.73;;
25435;SDS011;13363;52.772;-3.890;2023-03-30T03:47:28;13.80;;;3.80;;
25435;SDS011;13363;52.772;-3.890;2023-03-30T03:49:55;18.93;;;3.70;;
25435;SDS011;13363;52.772;-3.890;2023-03-30T03:52:20;19.70;;;3.30;;
25435;SDS011;13363;52.772;-3.890;2023-03-30T03:54:46;12.63;;;2.70;;
25435;SDS011;13363;52.772;-3.890;2023-03-30T03:57:12;5.37;;;2.87;;
25435;SDS011;13363;52.772;-3.890;2023-03-30T03:59:38;14.70;;;2.77;;
25435;SDS011;13363;52.772;-3.890;2023-03-30T04:02:03;21.10;;;3.70;;
25435;SDS011;13363;52.772;-3.890;2023-03-30T04:04:29;10.97;;;2.80;;
25435;SDS011;13363;52.772;-3.890;2023-03-30T04:06:55;24.17;;;4.83;;
25435;SDS011;13363;52.772;-3.890;2023-03-30T04:09:21;17.90;;;4.07;;
25435;SDS011;13363;52.772;-3.890;2023-03-30T04:11:47;21.67;;;3.50;;
25435;SDS011;13363;52.772;-3.890;2023-03-30T04:14:13;22.77;;;4.60;;
25435;SDS011;13363;52.772;-3.890;2023-03-30T04:16:39;28.77;;;4.27;;
25435;SDS011;13363;52.772;-3.890;2023-03-30T04:19:05;31.10;;;5.63;;
25435;SDS011;13363;52.772;-3.890;2023-03-30T04:21:33;35.13;;;5.63;;
25435;SDS011;13363;52.772;-3.890;2023-03-30T04:23:59;10.63;;;3.57;;
25435;SDS011;13363;52.772;-3.890;2023-03-30T04:26:24;26.03;;;4.43;;
25435;SDS011;13363;52.772;-3.890;2023-03-30T04:28:52;34.47;;;5.30;;
25435;SDS011;13363;52.772;-3.890;2023-03-30T04:31:18;17.50;;;4.10;;
25435;SDS011;13363;52.772;-3.890;2023-03-30T04:33:43;32.67;;;5.90;;
25435;SDS011;13363;52.772;-3.890;2023-03-30T04:36:17;34.07;;;5.13;;
25435;SDS011;13363;52.772;-3.890;2023-03-30T04:38:44;33.13;;;5.53;;
25435;SDS011;13363;52.772;-3.890;2023-03-30T04:41:27;25.47;;;5.10;;
25435;SDS011;13363;52.772;-3.890;2023-03-30T04:44:04;26.63;;;5.67;;
25435;SDS011;13363;52.772;-3.890;2023-03-30T04:46:31;29.00;;;5.27;;
25435;SDS011;13363;52.772;-3.890;2023-03-30T04:48:57;20.20;;;4.20;;
25435;SDS011;13363;52.772;-3.890;2023-03-30T04:51:23;32.77;;;5.20;;
25435;SDS011;13363;52.772;-3.890;2023-03-30T04:53:49;30.77;;;5.20;;
25435;SDS011;13363;52.772;-3.890;2023-03-30T04:56:15;21.73;;;5.13;;
25435;SDS011;13363;52.772;-3.890;2023-03-30T04:58:41;26.47;;;5.43;;
25435;SDS011;13363;52.772;-3.890;2023-03-30T05:01:07;28.80;;;5.00;;
25435;SDS011;13363;52.772;-3.890;2023-03-30T05:03:33;20.03;;;4.60;;
25435;SDS011;13363;52.772;-3.890;2023-03-30T05:05:58;26.73;;;4.60;;
25435;SDS011;13363;52.772;-3.890;2023-03-30T05:08:24;29.20;;;5.17;;
25435;SDS011;13363;52.772;-3.890;2023-03-30T05:10:50;26.47;;;5.77;;
25435;SDS011;13363;52.772;-3.890;2023-03-30T05:13:16;31.00;;;5.63;;
25435;SDS011;13363;52.772;-3.890;2023-03-30T05:15:42;27.23;;;4.73;;
25435;SDS011;13363;52.772;-3.890;2023-03-30T05:18:08;25.07;;;5.00;;
25435;SDS011;13363;52.772;-3.890;2023-03-30T05:20:33;23.40;;;4.53;;
25435;SDS011;13363;52.772;-3.890;2023-03-30T05:22:59;23.73;;;4.80;;
25435;SDS011;13363;52.772;-3.890;2023-03-30T05:25:25;44.97;;;6.13;;
25435;SDS011;13363;52.772;-3.890;2023-03-30T05:27:51;15.60;;;4.00;;
25435;SDS011;13363;52.772;-3.890;2023-03-30T05:30:17;22.83;;;5.07;;
25435;SDS011;13363;52.772;-3.890;2023-03-30T05:32:42;23.00;;;5.53;;
25435;SDS011;13363;52.772;-3.890;2023-03-30T05:35:08;7.67;;;2.43;;
25435;SDS011;13363;52.772;-3.890;2023-03-30T05:37:35;20.53;;;3.53;;
25435;SDS011;13363;52.772;-3.890;2023-03-30T05:40:02;21.47;;;4.80;;
25435;SDS011;13363;52.772;-3.890;2023-03-30T05:42:31;20.63;;;5.13;;
25435;SDS011;13363;52.772;-3.890;2023-03-30T05:44:57;19.93;;;4.57;;
25435;SDS011;13363;52.772;-3.890;2023-03-30T05:47:22;13.63;;;3.17;;
25435;SDS011;13363;52.772;-3.890;2023-03-30T05:49:49;11.40;;;3.10;;
25435;SDS011;13363;52.772;-3.890;2023-03-30T05:52:15;15.17;;;4.40;;
25435;SDS011;13363;52.772;-3.890;2023-03-30T05:54:41;14.80;;;3.40;;
25435;SDS011;13363;52.772;-3.890;2023-03-30T05:57:07;17.30;;;4.90;;
25435;SDS011;13363;52.772;-3.890;2023-03-30T05:59:32;20.93;;;5.07;;
25435;SDS011;13363;52.772;-3.890;2023-03-30T06:01:58;10.13;;;2.50;;
25435;SDS011;13363;52.772;-3.890;2023-03-30T06:04:24;11.00;;;3.47;;
25435;SDS011;13363;52.772;-3.890;2023-03-30T06:06:51;21.20;;;3.80;;
25435;SDS011;13363;52.772;-3.890;2023-03-30T06:09:17;11.40;;;2.70;;
25435;SDS011;13363;52.772;-3.890;2023-03-30T06:11:43;6.47;;;2.73;;
25435;SDS011;13363;52.772;-3.890;2023-03-30T06:14:09;10.23;;;3.17;;
25435;SDS011;13363;52.772;-3.890;2023-03-30T06:16:35;8.37;;;1.80;;
25435;SDS011;13363;52.772;-3.890;2023-03-30T06:19:01;10.90;;;3.00;;
25435;SDS011;13363;52.772;-3.890;2023-03-30T06:21:27;8.03;;;2.47;;
25435;SDS011;13363;52.772;-3.890;2023-03-30T06:23:53;6.73;;;2.40;;
25435;SDS011;13363;52.772;-3.890;2023-03-30T06:26:19;14.20;;;2.87;;
25435;SDS011;13363;52.772;-3.890;2023-03-30T06:28:44;13.47;;;3.40;;
25435;SDS011;13363;52.772;-3.890;2023-03-30T06:31:10;14.47;;;3.27;;
25435;SDS011;13363;52.772;-3.890;2023-03-30T06:33:36;15.03;;;3.37;;
25435;SDS011;13363;52.772;-3.890;2023-03-30T06:36:02;13.57;;;3.23;;
25435;SDS011;13363;52.772;-3.890;2023-03-30T06:38:28;8.90;;;2.70;;
25435;SDS011;13363;52.772;-3.890;2023-03-30T06:40:54;12.83;;;3.23;;
25435;SDS011;13363;52.772;-3.890;2023-03-30T06:43:20;13.73;;;3.77;;
25435;SDS011;13363;52.772;-3.890;2023-03-30T06:45:51;11.37;;;2.90;;
25435;SDS011;13363;52.772;-3.890;2023-03-30T06:48:18;5.17;;;2.00;;
25435;SDS011;13363;52.772;-3.890;2023-03-30T06:50:47;12.97;;;3.77;;
25435;SDS011;13363;52.772;-3.890;2023-03-30T06:53:14;16.00;;;3.57;;
25435;SDS011;13363;52.772;-3.890;2023-03-30T06:55:41;15.57;;;4.23;;
25435;SDS011;13363;52.772;-3.890;2023-03-30T06:58:07;12.73;;;3.40;;
25435;SDS011;13363;52.772;-3.890;2023-03-30T07:00:33;16.87;;;4.50;;
25435;SDS011;13363;52.772;-3.890;2023-03-30T07:02:59;5.57;;;2.30;;
25435;SDS011;13363;52.772;-3.890;2023-03-30T07:05:25;18.00;;;3.47;;
25435;SDS011;13363;52.772;-3.890;2023-03-30T07:07:54;16.43;;;4.30;;
25435;SDS011;13363;52.772;-3.890;2023-03-30T07:10:21;16.33;;;3.90;;
25435;SDS011;13363;52.772;-3.890;2023-03-30T07:12:47;21.37;;;4.17;;
25435;SDS011;13363;52.772;-3.890;2023-03-30T07:15:13;24.13;;;5.63;;
25435;SDS011;13363;52.772;-3.890;2023-03-30T07:17:39;34.77;;;6.57;;
25435;SDS011;13363;52.772;-3.890;2023-03-30T07:20:06;28.07;;;5.57;;
25435;SDS011;13363;52.772;-3.890;2023-03-30T07:22:33;26.90;;;6.13;;
25435;SDS011;13363;52.772;-3.890;2023-03-30T07:25:00;18.53;;;4.17;;
25435;SDS011;13363;52.772;-3.890;2023-03-30T07:27:25;28.47;;;5.77;;
25435;SDS011;13363;52.772;-3.890;2023-03-30T07:29:51;28.70;;;6.07;;
25435;SDS011;13363;52.772;-3.890;2023-03-30T07:32:18;32.80;;;6.10;;
25435;SDS011;13363;52.772;-3.890;2023-03-30T07:34:44;27.30;;;5.80;;
25435;SDS011;13363;52.772;-3.890;2023-03-30T07:37:10;25.87;;;4.77;;
25435;SDS011;13363;52.772;-3.890;2023-03-30T07:39:37;28.60;;;6.40;;
25435;SDS011;13363;52.772;-3.890;2023-03-30T07:42:02;25.50;;;6.17;;
25435;SDS011;13363;52.772;-3.890;2023-03-30T07:44:29;31.77;;;6.50;;
25435;SDS011;13363;52.772;-3.890;2023-03-30T07:46:55;36.70;;;6.27;;
25435;SDS011;13363;52.772;-3.890;2023-03-30T07:49:22;29.20;;;5.83;;
25435;SDS011;13363;52.772;-3.890;2023-03-30T07:51:48;23.37;;;4.90;;
25435;SDS011;13363;52.772;-3.890;2023-03-30T07:54:14;30.83;;;6.80;;
25435;SDS011;13363;52.772;-3.890;2023-03-30T07:56:40;24.97;;;5.33;;
25435;SDS011;13363;52.772;-3.890;2023-03-30T07:59:07;26.67;;;4.37;;
25435;SDS011;13363;52.772;-3.890;2023-03-30T08:01:34;27.77;;;6.20;;
25435;SDS011;13363;52.772;-3.890;2023-03-30T08:04:00;27.17;;;5.97;;
25435;SDS011;13363;52.772;-3.890;2023-03-30T08:06:26;35.10;;;5.93;;
25435;SDS011;13363;52.772;-3.890;2023-03-30T08:08:53;22.70;;;5.07;;
25435;SDS011;13363;52.772;-3.890;2023-03-30T08:11:19;36.80;;;6.60;;
25435;SDS011;13363;52.772;-3.890;2023-03-30T08:13:45;41.13;;;7.03;;
25435;SDS011;13363;52.772;-3.890;2023-03-30T08:16:11;32.53;;;4.47;;
25435;SDS011;13363;52.772;-3.890;2023-03-30T08:18:37;34.77;;;6.00;;
25435;SDS011;13363;52.772;-3.890;2023-03-30T08:21:05;19.43;;;4.33;;
25435;SDS011;13363;52.772;-3.890;2023-03-30T08:23:31;29.43;;;5.23;;
25435;SDS011;13363;52.772;-3.890;2023-03-30T08:25:58;27.17;;;6.63;;
25435;SDS011;13363;52.772;-3.890;2023-03-30T08:28:25;37.33;;;7.57;;
25435;SDS011;13363;52.772;-3.890;2023-03-30T08:30:50;20.43;;;4.37;;
25435;SDS011;13363;52.772;-3.890;2023-03-30T08:33:17;24.63;;;5.37;;
25435;SDS011;13363;52.772;-3.890;2023-03-30T08:35:46;26.90;;;5.90;;
25435;SDS011;13363;52.772;-3.890;2023-03-30T08:38:12;26.50;;;5.00;;
25435;SDS011;13363;52.772;-3.890;2023-03-30T08:40:42;32.43;;;6.37;;
25435;SDS011;13363;52.772;-3.890;2023-03-30T08:45:58;40.07;;;7.10;;
25435;SDS011;13363;52.772;-3.890;2023-03-30T08:48:26;33.57;;;5.63;;
25435;SDS011;13363;52.772;-3.890;2023-03-30T08:50:58;22.90;;;6.33;;
25435;SDS011;13363;52.772;-3.890;2023-03-30T08:53:28;32.43;;;6.67;;
25435;SDS011;13363;52.772;-3.890;2023-03-30T08:56:00;24.30;;;6.77;;
25435;SDS011;13363;52.772;-3.890;2023-03-30T09:01:09;26.10;;;5.47;;
25435;SDS011;13363;52.772;-3.890;2023-03-30T09:06:56;33.43;;;8.00;;
25435;SDS011;13363;52.772;-3.890;2023-03-30T09:09:28;29.77;;;7.43;;
25435;SDS011;13363;52.772;-3.890;2023-03-30T09:12:07;38.57;;;8.20;;
25435;SDS011;13363;52.772;-3.890;2023-03-30T09:14:52;33.97;;;5.83;;
25435;SDS011;13363;52.772;-3.890;2023-03-30T09:17:25;26.10;;;5.70;;
25435;SDS011;13363;52.772;-3.890;2023-03-30T09:20:14;31.37;;;7.07;;
25435;SDS011;13363;52.772;-3.890;2023-03-30T09:22:46;35.63;;;6.90;;
25435;SDS011;13363;52.772;-3.890;2023-03-30T09:27:44;24.40;;;6.53;;
25435;SDS011;13363;52.772;-3.890;2023-03-30T09:30:17;29.00;;;5.30;;
25435;SDS011;13363;52.772;-3.890;2023-03-30T09:32:48;23.73;;;5.33;;
25435;SDS011;13363;52.772;-3.890;2023-03-30T09:35:29;36.73;;;6.47;;
25435;SDS011;13363;52.772;-3.890;2023-03-30T09:38:04;26.50;;;5.90;;
25435;SDS011;13363;52.772;-3.890;2023-03-30T09:40:41;40.30;;;7.97;;
25435;SDS011;13363;52.772;-3.890;2023-03-30T09:43:23;25.43;;;5.43;;
25435;SDS011;13363;52.772;-3.890;2023-03-30T09:45:59;23.37;;;5.83;;
25435;SDS011;13363;52.772;-3.890;2023-03-30T09:48:36;27.17;;;6.23;;
25435;SDS011;13363;52.772;-3.890;2023-03-30T09:51:16;30.97;;;7.47;;
25435;SDS011;13363;52.772;-3.890;2023-03-30T09:53:50;27.97;;;5.20;;
25435;SDS011;13363;52.772;-3.890;2023-03-30T09:56:34;33.70;;;5.20;;
25435;SDS011;13363;52.772;-3.890;2023-03-30T10:02:09;26.83;;;5.50;;
25435;SDS011;13363;52.772;-3.890;2023-03-30T10:07:22;34.43;;;6.23;;
25435;SDS011;13363;52.772;-3.890;2023-03-30T10:15:39;38.27;;;7.00;;
25435;SDS011;13363;52.772;-3.890;2023-03-30T10:18:34;31.40;;;6.97;;
25435;SDS011;13363;52.772;-3.890;2023-03-30T10:21:05;27.47;;;5.80;;
25435;SDS011;13363;52.772;-3.890;2023-03-30T10:23:41;26.30;;;4.80;;
25435;SDS011;13363;52.772;-3.890;2023-03-30T10:26:15;18.53;;;6.23;;
25435;SDS011;13363;52.772;-3.890;2023-03-30T10:28:50;19.13;;;4.13;;
25435;SDS011;13363;52.772;-3.890;2023-03-30T10:31:18;26.00;;;5.37;;
25435;SDS011;13363;52.772;-3.890;2023-03-30T10:33:45;25.90;;;4.87;;
25435;SDS011;13363;52.772;-3.890;2023-03-30T10:36:12;31.30;;;6.40;;
25435;SDS011;13363;52.772;-3.890;2023-03-30T10:38:40;29.23;;;6.17;;
25435;SDS011;13363;52.772;-3.890;2023-03-30T10:41:07;21.37;;;4.57;;
25435;SDS011;13363;52.772;-3.890;2023-03-30T10:43:45;23.43;;;6.10;;
25435;SDS011;13363;52.772;-3.890;2023-03-30T10:46:14;24.73;;;4.43;;
25435;SDS011;13363;52.772;-3.890;2023-03-30T10:56:43;16.03;;;4.70;;
25435;SDS011;13363;52.772;-3.890;2023-03-30T11:07:00;34.87;;;5.90;;
25435;SDS011;13363;52.772;-3.890;2023-03-30T11:09:31;20.83;;;4.33;;
25435;SDS011;13363;52.772;-3.890;2023-03-30T11:12:03;22.83;;;5.50;;
25435;SDS011;13363;52.772;-3.890;2023-03-30T11:23:43;19.77;;;5.53;;
25435;SDS011;13363;52.772;-3.890;2023-03-30T11:26:17;23.57;;;5.20;;
25435;SDS011;13363;52.772;-3.890;2023-03-30T11:29:23;27.07;;;6.13;;
25435;SDS011;13363;52.772;-3.890;2023-03-30T11:32:10;25.57;;;5.27;;
25435;SDS011;13363;52.772;-3.890;2023-03-30T11:35:16;17.53;;;4.73;;
25435;SDS011;13363;52.772;-3.890;2023-03-30T11:42:43;29.13;;;6.60;;
25435;SDS011;13363;52.772;-3.890;2023-03-30T11:45:20;26.80;;;6.73;;
25435;SDS011;13363;52.772;-3.890;2023-03-30T11:56:32;18.30;;;5.00;;
25435;SDS011;13363;52.772;-3.890;2023-03-30T12:07:19;24.63;;;6.43;;
25435;SDS011;13363;52.772;-3.890;2023-03-30T12:09:54;18.27;;;4.60;;
25435;SDS011;13363;52.772;-3.890;2023-03-30T12:12:25;19.87;;;4.80;;
25435;SDS011;13363;52.772;-3.890;2023-03-30T12:17:52;23.13;;;4.17;;
25435;SDS011;13363;52.772;-3.890;2023-03-30T12:32:02;31.17;;;6.37;;
25435;SDS011;13363;52.772;-3.890;2023-03-30T12:34:31;29.60;;;5.23;;
25435;SDS011;13363;52.772;-3.890;2023-03-30T12:37:02;21.27;;;6.00;;
25435;SDS011;13363;52.772;-3.890;2023-03-30T12:39:59;17.13;;;3.83;;
25435;SDS011;13363;52.772;-3.890;2023-03-30T12:42:37;26.60;;;5.73;;
25435;SDS011;13363;52.772;-3.890;2023-03-30T13:04:42;24.27;;;5.77;;
25435;SDS011;13363;52.772;-3.890;2023-03-30T13:10:03;12.27;;;3.47;;
25435;SDS011;13363;52.772;-3.890;2023-03-30T13:12:47;20.10;;;3.93;;
25435;SDS011;13363;52.772;-3.890;2023-03-30T13:20:26;23.93;;;5.03;;
25435;SDS011;13363;52.772;-3.890;2023-03-30T13:25:39;15.33;;;3.73;;
25435;SDS011;13363;52.772;-3.890;2023-03-30T13:31:24;26.07;;;4.87;;
25435;SDS011;13363;52.772;-3.890;2023-03-30T13:33:47;9.03;;;2.53;;
25435;SDS011;13363;52.772;-3.890;2023-03-30T13:36:19;25.57;;;4.97;;
25435;SDS011;13363;52.772;-3.890;2023-03-30T13:46:37;16.10;;;4.33;;
25435;SDS011;13363;52.772;-3.890;2023-03-30T13:51:31;23.97;;;4.90;;
25435;SDS011;13363;52.772;-3.890;2023-03-30T13:54:05;17.60;;;5.17;;
25435;SDS011;13363;52.772;-3.890;2023-03-30T13:56:38;15.33;;;5.17;;
25435;SDS011;13363;52.772;-3.890;2023-03-30T13:59:11;17.63;;;4.30;;
25435;SDS011;13363;52.772;-3.890;2023-03-30T14:01:39;15.37;;;3.37;;
25435;SDS011;13363;52.772;-3.890;2023-03-30T14:04:09;15.67;;;3.23;;
25435;SDS011;13363;52.772;-3.890;2023-03-30T14:06:47;11.07;;;3.37;;
25435;SDS011;13363;52.772;-3.890;2023-03-30T14:09:20;16.67;;;3.47;;
25435;SDS011;13363;52.772;-3.890;2023-03-30T14:11:51;19.30;;;4.63;;
25435;SDS011;13363;52.772;-3.890;2023-03-30T14:14:30;16.67;;;2.73;;
25435;SDS011;13363;52.772;-3.890;2023-03-30T14:17:18;14.27;;;3.57;;
25435;SDS011;13363;52.772;-3.890;2023-03-30T14:22:43;17.17;;;3.07;;
25435;SDS011;13363;52.772;-3.890;2023-03-30T14:28:15;25.30;;;5.30;;
25435;SDS011;13363;52.772;-3.890;2023-03-30T14:31:02;13.07;;;3.60;;
25435;SDS011;13363;52.772;-3.890;2023-03-30T14:33:36;26.50;;;5.10;;
25435;SDS011;13363;52.772;-3.890;2023-03-30T14:36:04;19.87;;;5.53;;
25435;SDS011;13363;52.772;-3.890;2023-03-30T14:38:36;15.90;;;3.57;;
25435;SDS011;13363;52.772;-3.890;2023-03-30T14:41:08;30.50;;;4.37;;
25435;SDS011;13363;52.772;-3.890;2023-03-30T14:43:40;28.83;;;4.77;;
25435;SDS011;13363;52.772;-3.890;2023-03-30T14:46:11;27.43;;;5.60;;
25435;SDS011;13363;52.772;-3.890;2023-03-30T14:48:38;16.47;;;3.60;;
25435;SDS011;13363;52.772;-3.890;2023-03-30T14:53:45;26.80;;;5.17;;
25435;SDS011;13363;52.772;-3.890;2023-03-30T14:56:11;24.50;;;3.97;;
25435;SDS011;13363;52.772;-3.890;2023-03-30T14:58:41;27.87;;;4.13;;
25435;SDS011;13363;52.772;-3.890;2023-03-30T15:01:07;4.33;;;2.10;;
25435;SDS011;13363;52.772;-3.890;2023-03-30T15:03:39;24.47;;;5.80;;
25435;SDS011;13363;52.772;-3.890;2023-03-30T15:06:05;28.73;;;6.07;;
25435;SDS011;13363;52.772;-3.890;2023-03-30T15:08:36;15.13;;;4.13;;
25435;SDS011;13363;52.772;-3.890;2023-03-30T15:11:11;19.03;;;3.60;;
25435;SDS011;13363;52.772;-3.890;2023-03-30T15:13:49;24.37;;;4.00;;
25435;SDS011;13363;52.772;-3.890;2023-03-30T15:16:19;21.73;;;5.30;;
25435;SDS011;13363;52.772;-3.890;2023-03-30T15:18:51;11.80;;;3.20;;
25435;SDS011;13363;52.772;-3.890;2023-03-30T15:21:20;23.80;;;5.10;;
25435;SDS011;13363;52.772;-3.890;2023-03-30T15:23:46;21.20;;;4.13;;
25435;SDS011;13363;52.772;-3.890;2023-03-30T15:26:14;19.23;;;4.30;;
25435;SDS011;13363;52.772;-3.890;2023-03-30T15:28:49;26.50;;;5.43;;
25435;SDS011;13363;52.772;-3.890;2023-03-30T15:31:17;19.80;;;5.10;;
25435;SDS011;13363;52.772;-3.890;2023-03-30T15:33:44;30.23;;;5.27;;
25435;SDS011;13363;52.772;-3.890;2023-03-30T15:36:22;21.93;;;4.40;;
25435;SDS011;13363;52.772;-3.890;2023-03-30T15:38:56;27.50;;;5.97;;
25435;SDS011;13363;52.772;-3.890;2023-03-30T15:44:12;10.47;;;2.43;;
25435;SDS011;13363;52.772;-3.890;2023-03-30T15:46:42;22.70;;;4.57;;
25435;SDS011;13363;52.772;-3.890;2023-03-30T15:49:10;25.17;;;4.37;;
25435;SDS011;13363;52.772;-3.890;2023-03-30T15:51:39;16.90;;;3.93;;
25435;SDS011;13363;52.772;-3.890;2023-03-30T15:54:15;18.20;;;3.17;;
25435;SDS011;13363;52.772;-3.890;2023-03-30T15:57:00;14.50;;;4.03;;
25435;SDS011;13363;52.772;-3.890;2023-03-30T15:59:30;18.27;;;4.60;;
25435;SDS011;13363;52.772;-3.890;2023-03-30T16:02:00;23.20;;;5.50;;
25435;SDS011;13363;52.772;-3.890;2023-03-30T16:04:29;19.07;;;4.80;;
25435;SDS011;13363;52.772;-3.890;2023-03-30T16:06:56;25.77;;;4.53;;
25435;SDS011;13363;52.772;-3.890;2023-03-30T16:09:22;23.67;;;5.17;;
25435;SDS011;13363;52.772;-3.890;2023-03-30T16:11:48;20.87;;;5.17;;
25435;SDS011;13363;52.772;-3.890;2023-03-30T16:14:18;23.37;;;4.43;;
25435;SDS011;13363;52.772;-3.890;2023-03-30T16:16:45;22.60;;;4.63;;
25435;SDS011;13363;52.772;-3.890;2023-03-30T16:19:12;23.37;;;5.20;;
25435;SDS011;13363;52.772;-3.890;2023-03-30T16:21:39;19.47;;;5.17;;
25435;SDS011;13363;52.772;-3.890;2023-03-30T16:24:05;19.07;;;4.13;;
25435;SDS011;13363;52.772;-3.890;2023-03-30T16:26:31;31.97;;;5.57;;
25435;SDS011;13363;52.772;-3.890;2023-03-30T16:28:57;12.40;;;3.23;;
25435;SDS011;13363;52.772;-3.890;2023-03-30T16:31:23;18.67;;;4.23;;
25435;SDS011;13363;52.772;-3.890;2023-03-30T16:33:49;21.53;;;5.17;;
25435;SDS011;13363;52.772;-3.890;2023-03-30T16:36:20;21.73;;;4.27;;
25435;SDS011;13363;52.772;-3.890;2023-03-30T16:38:48;17.40;;;4.13;;
25435;SDS011;13363;52.772;-3.890;2023-03-30T16:41:19;13.60;;;4.10;;
25435;SDS011;13363;52.772;-3.890;2023-03-30T16:43:46;22.13;;;4.80;;
25435;SDS011;13363;52.772;-3.890;2023-03-30T16:46:14;16.97;;;4.53;;
25435;SDS011;13363;52.772;-3.890;2023-03-30T16:48:40;18.57;;;4.17;;
25435;SDS011;13363;52.772;-3.890;2023-03-30T16:51:08;15.97;;;4.47;;
25435;SDS011;13363;52.772;-3.890;2023-03-30T16:53:36;15.77;;;4.07;;
25435;SDS011;13363;52.772;-3.890;2023-03-30T16:56:02;16.63;;;4.07;;
25435;SDS011;13363;52.772;-3.890;2023-03-30T16:58:28;13.30;;;4.10;;
25435;SDS011;13363;52.772;-3.890;2023-03-30T17:00:54;16.13;;;4.77;;
25435;SDS011;13363;52.772;-3.890;2023-03-30T17:03:27;18.03;;;4.27;;
25435;SDS011;13363;52.772;-3.890;2023-03-30T17:05:54;20.60;;;4.00;;
25435;SDS011;13363;52.772;-3.890;2023-03-30T17:08:21;14.03;;;4.33;;
25435;SDS011;13363;52.772;-3.890;2023-03-30T17:10:48;25.20;;;5.30;;
25435;SDS011;13363;52.772;-3.890;2023-03-30T17:13:15;17.53;;;3.90;;
25435;SDS011;13363;52.772;-3.890;2023-03-30T17:15:41;13.30;;;3.47;;
25435;SDS011;13363;52.772;-3.890;2023-03-30T17:18:14;16.63;;;4.17;;
25435;SDS011;13363;52.772;-3.890;2023-03-30T17:20:45;17.23;;;3.67;;
25435;SDS011;13363;52.772;-3.890;2023-03-30T17:23:13;14.17;;;3.83;;
25435;SDS011;13363;52.772;-3.890;2023-03-30T17:25:41;12.23;;;3.10;;
25435;SDS011;13363;52.772;-3.890;2023-03-30T17:28:07;13.20;;;3.53;;
25435;SDS011;13363;52.772;-3.890;2023-03-30T17:30:40;16.30;;;4.40;;
25435;SDS011;13363;52.772;-3.890;2023-03-30T17:33:06;12.43;;;4.00;;
25435;SDS011;13363;52.772;-3.890;2023-03-30T17:35:35;25.23;;;6.23;;
25435;SDS011;13363;52.772;-3.890;2023-03-30T17:38:02;13.70;;;3.83;;
25435;SDS011;13363;52.772;-3.890;2023-03-30T17:40:29;15.53;;;3.67;;